Terminal Aerodrome Forecast
Issued by NWS

Current Version | Previous Version | Text Only | Print | Product List | Glossary Off
Versions: 1 2 3 4 5 6 7 8 9 10 11 12 13 14 15 16 17 18 19 20 21 22 23 24 25 26 27 28 29 30 31 32 33

000
FTUS41 KRNK 012337
TAFLWB
TAF
KLWB 012337Z 0200/0224 32005KT P6SM BKN045
     FM020400 32003KT P6SM BKN025
     FM020800 32003KT 4SM BR BKN025
     FM021400 32006KT P6SM SCT045=

USA.gov is the U.S. government's official web portal to all federal, state and local government web resources and services.